Time;durP1;ratioP1;P1;durP2;ratioP2;P2;SDS_P1;SDS_P2;PMS_P1;PMS_P2;Temp;Humidity;BMP_temperature;BMP_pressure;BME280_temperature;BME280_humidity;BME280_pressure;Samples;Min_cycle;Max_cycle;Signal;HPM_P1;HPM_P2
2022/08/31 00:05:31;;;;;;;7.40;2.35;;;;;;;16.88;100.00;101974.34;5272271;28;20024;-74
2022/08/31 00:08:01;;;;;;;4.78;2.40;;;;;;;16.90;100.00;101969.59;5289122;28;20023;-74
2022/08/31 00:10:32;;;;;;;5.07;2.28;;;;;;;16.94;100.00;101975.50;5274956;28;20058;-74
2022/08/31 00:13:03;;;;;;;2.47;2.00;;;;;;;16.98;100.00;101982.25;5288790;28;20023;-73
2022/08/31 00:15:34;;;;;;;3.28;2.20;;;;;;;17.02;100.00;101975.44;5267114;28;20054;-74
2022/08/31 00:18:05;;;;;;;14.55;2.78;;;;;;;17.05;100.00;101972.34;5268055;28;20061;-74
2022/08/31 00:20:36;;;;;;;4.22;2.30;;;;;;;17.07;100.00;101975.75;5268403;28;20024;-74
2022/08/31 00:23:10;;;;;;;6.10;2.30;;;;;;;17.07;100.00;101976.59;5284807;28;20118;-73
2022/08/31 00:25:44;;;;;;;6.90;2.28;;;;;;;17.09;100.00;101979.09;5289162;28;20024;-74
2022/08/31 00:28:16;;;;;;;6.45;2.47;;;;;;;17.12;100.00;101973.34;5290745;28;20098;-74
2022/08/31 00:30:47;;;;;;;4.25;2.47;;;;;;;17.13;100.00;101968.75;5277580;28;20039;-74
2022/08/31 00:33:18;;;;;;;3.78;2.28;;;;;;;17.16;100.00;101971.91;5275211;28;20019;-74
2022/08/31 00:35:48;;;;;;;3.97;2.53;;;;;;;17.18;100.00;101974.47;5289679;28;20031;-73
2022/08/31 00:38:19;;;;;;;6.90;2.28;;;;;;;17.22;100.00;101973.94;5272399;28;20028;-74
2022/08/31 00:40:49;;;;;;;8.48;2.40;;;;;;;17.24;100.00;101974.56;5291141;28;20034;-74
2022/08/31 00:43:57;;;;;;;6.35;2.88;;;;;;;17.27;100.00;101976.06;5269719;28;20016;-73
2022/08/31 00:46:31;;;;;;;6.43;2.58;;;;;;;17.29;100.00;101972.16;5274391;28;20074;-74
2022/08/31 00:49:20;;;;;;;4.63;2.55;;;;;;;17.34;100.00;101972.44;5275010;28;20028;-74
2022/08/31 00:51:57;;;;;;;4.65;2.45;;;;;;;17.38;100.00;101966.66;5270562;28;20396;-74
2022/08/31 00:54:35;;;;;;;3.92;2.13;;;;;;;17.39;100.00;101961.03;5292283;28;20027;-75
2022/08/31 00:57:06;;;;;;;5.55;2.70;;;;;;;17.42;100.00;101959.81;5271899;28;20432;-74
2022/08/31 00:59:39;;;;;;;4.82;2.78;;;;;;;17.41;100.00;101956.25;5279720;28;20085;-74
2022/08/31 01:02:10;;;;;;;4.60;2.10;;;;;;;17.38;100.00;101951.22;5268618;28;20028;-73
2022/08/31 01:04:40;;;;;;;3.80;2.72;;;;;;;17.35;100.00;101959.72;5266682;28;20084;-75
2022/08/31 01:07:11;;;;;;;5.93;2.63;;;;;;;17.31;100.00;101961.13;5266278;28;20059;-75
2022/08/31 01:09:43;;;;;;;4.03;2.55;;;;;;;17.28;100.00;101961.50;5278821;28;20362;-75
2022/08/31 01:12:14;;;;;;;6.80;3.38;;;;;;;17.25;100.00;101956.44;5269819;28;20046;-75
2022/08/31 01:14:44;;;;;;;8.50;2.47;;;;;;;17.24;100.00;101968.31;5273473;28;20431;-75
2022/08/31 01:17:16;;;;;;;8.98;2.78;;;;;;;17.23;100.00;101961.22;5261882;28;20019;-75
2022/08/31 01:20:10;;;;;;;8.23;2.97;;;;;;;17.26;100.00;101952.69;5249714;28;20077;-74
2022/08/31 01:22:50;;;;;;;4.25;2.80;;;;;;;17.25;100.00;101962.69;5275493;28;20029;-75
2022/08/31 01:25:21;;;;;;;6.20;2.80;;;;;;;17.25;100.00;101962.69;5267126;28;20059;-73
2022/08/31 01:27:53;;;;;;;5.30;3.10;;;;;;;17.25;100.00;101968.13;5288201;28;20028;-73
2022/08/31 01:30:25;;;;;;;3.30;2.50;;;;;;;17.28;100.00;101961.50;5277637;28;20047;-74
2022/08/31 01:32:55;;;;;;;4.93;2.75;;;;;;;17.29;100.00;101957.75;5280202;28;20039;-73
2022/08/31 01:35:27;;;;;;;6.88;3.65;;;;;;;17.29;100.00;101957.75;5263057;28;20024;-73
2022/08/31 01:37:58;;;;;;;4.38;2.88;;;;;;;17.26;100.00;101968.94;5273650;28;20027;-73
2022/08/31 01:40:34;;;;;;;3.55;2.50;;;;;;;17.23;100.00;101967.47;5286813;28;20023;-73
2022/08/31 01:43:04;;;;;;;5.97;3.08;;;;;;;17.22;100.00;101964.91;5287004;28;20035;-72
2022/08/31 01:45:35;;;;;;;19.20;3.47;;;;;;;17.19;100.00;101968.84;5286176;28;20023;-72
2022/08/31 01:48:05;;;;;;;5.18;2.63;;;;;;;17.17;100.00;101965.50;5274303;28;20023;-72
2022/08/31 01:50:36;;;;;;;6.82;2.83;;;;;;;17.13;100.00;101968.75;5273388;28;20419;-73
2022/08/31 01:53:08;;;;;;;5.57;2.30;;;;;;;17.09;100.00;101970.97;5286508;28;20406;-72
2022/08/31 01:55:39;;;;;;;5.82;2.83;;;;;;;17.06;100.00;101976.75;5283166;28;20031;-71
2022/08/31 01:58:11;;;;;;;6.07;2.95;;;;;;;17.04;100.00;101976.09;5277021;28;20446;-72
2022/08/31 02:00:42;;;;;;;10.73;3.10;;;;;;;17.02;100.00;101972.75;5286633;28;20023;-72
2022/08/31 02:03:13;;;;;;;3.70;2.80;;;;;;;17.02;100.00;101978.16;5274618;28;20488;-72
2022/08/31 02:05:44;;;;;;;6.47;2.97;;;;;;;17.00;100.00;101962.06;5284911;28;20023;-73
2022/08/31 02:08:14;;;;;;;4.32;2.67;;;;;;;16.98;100.00;101971.41;5272979;28;20028;-73
2022/08/31 02:10:46;;;;;;;5.88;3.05;;;;;;;16.96;100.00;101962.59;5286869;28;20059;-73
2022/08/31 02:13:18;;;;;;;5.88;2.80;;;;;;;16.92;100.00;101962.13;5286949;28;20106;-74
2022/08/31 02:15:49;;;;;;;6.80;3.08;;;;;;;16.89;100.00;101961.66;5285703;28;20070;-73
2022/08/31 02:18:20;;;;;;;4.55;2.58;;;;;;;16.87;100.00;101969.09;5269887;28;20048;-73
2022/08/31 02:20:51;;;;;;;5.28;2.95;;;;;;;16.81;100.00;101963.38;5266024;28;20052;-72
2022/08/31 02:23:21;;;;;;;5.32;3.08;;;;;;;16.80;100.00;101958.97;5278991;28;20036;-73
2022/08/31 02:25:54;;;;;;;6.97;3.20;;;;;;;16.78;100.00;101961.03;5276917;28;20031;-74
2022/08/31 02:28:24;;;;;;;7.68;3.17;;;;;;;16.80;100.00;101961.69;5285517;28;20423;-74
2022/08/31 02:30:55;;;;;;;5.40;3.25;;;;;;;16.81;100.00;101966.09;5286436;28;20028;-73
2022/08/31 02:33:25;;;;;;;8.07;3.10;;;;;;;16.84;100.00;101970.31;5273062;28;20068;-74
2022/08/31 02:35:56;;;;;;;6.40;3.53;;;;;;;16.87;100.00;101964.53;5272055;28;20035;-73
2022/08/31 02:38:26;;;;;;;4.35;3.35;;;;;;;16.85;100.00;101972.00;5277798;28;20031;-73
2022/08/31 02:40:57;;;;;;;8.48;3.55;;;;;;;16.86;100.00;101967.41;5278590;28;20031;-73
2022/08/31 02:43:28;;;;;;;5.05;3.20;;;;;;;16.87;100.00;101980.81;5257347;28;20047;-73
2022/08/31 02:45:59;;;;;;;7.07;3.10;;;;;;;16.86;100.00;101975.53;5282219;28;20103;-73
2022/08/31 02:48:29;;;;;;;10.55;3.33;;;;;;;16.85;100.00;101973.88;5265377;28;20477;-73
2022/08/31 02:51:18;;;;;;;5.55;3.65;;;;;;;16.83;100.00;101972.19;5265362;28;20030;-74
2022/08/31 02:53:50;;;;;;;7.25;3.33;;;;;;;16.80;100.00;101974.41;5280346;28;20397;-73
2022/08/31 02:56:20;;;;;;;5.22;3.20;;;;;;;16.77;100.00;101970.19;5277091;28;20020;-73
2022/08/31 02:58:53;;;;;;;8.35;3.33;;;;;;;16.77;100.00;101970.19;5267366;28;20187;-73
2022/08/31 03:01:25;;;;;;;6.72;3.78;;;;;;;16.77;100.00;101974.78;5286521;28;20030;-73
2022/08/31 03:03:56;;;;;;;9.32;3.42;;;;;;;16.73;100.00;101977.00;5275259;28;20027;-73
2022/08/31 03:06:30;;;;;;;6.55;3.17;;;;;;;16.73;100.00;101970.72;5278320;28;20020;-73
2022/08/31 03:09:01;;;;;;;5.18;3.20;;;;;;;16.73;100.00;101957.19;5282817;28;20024;-72
2022/08/31 03:11:31;;;;;;;6.28;3.50;;;;;;;16.71;100.00;101973.59;5269319;28;20027;-72
2022/08/31 03:14:02;;;;;;;8.25;3.38;;;;;;;16.71;100.00;101967.31;5276472;28;20039;-72
2022/08/31 03:16:33;;;;;;;13.95;3.78;;;;;;;16.70;100.00;101963.75;5289329;28;20084;-74
2022/08/31 03:19:03;;;;;;;6.22;3.35;;;;;;;16.71;100.00;101965.47;5290092;28;20095;-74
2022/08/31 03:21:34;;;;;;;7.57;3.35;;;;;;;16.71;100.00;101967.31;5287611;28;20023;-74
2022/08/31 03:24:04;;;;;;;4.82;3.30;;;;;;;16.69;100.00;101964.78;5278350;28;20058;-74
2022/08/31 03:26:35;;;;;;;5.05;3.70;;;;;;;16.67;100.00;101958.72;5275819;28;20055;-74
2022/08/31 03:29:06;;;;;;;9.68;3.67;;;;;;;16.66;100.00;101962.44;5289498;28;20029;-74
2022/08/31 03:31:36;;;;;;;6.45;3.17;;;;;;;16.64;100.00;101959.06;5270303;28;20012;-74
2022/08/31 03:34:07;;;;;;;7.22;3.65;;;;;;;16.62;100.00;101962.97;5272051;28;20102;-74
2022/08/31 03:36:37;;;;;;;6.05;3.42;;;;;;;16.57;100.00;101960.81;5289716;28;20026;-74
2022/08/31 03:39:08;;;;;;;8.38;3.63;;;;;;;16.55;100.00;101970.97;5275799;28;20118;-74
2022/08/31 03:41:38;;;;;;;8.73;3.45;;;;;;;16.52;100.00;101976.75;5269399;28;20024;-74
2022/08/31 03:44:09;;;;;;;6.75;3.85;;;;;;;16.49;100.00;101963.56;5283655;28;20031;-76
2022/08/31 03:46:43;;;;;;;7.60;3.65;;;;;;;16.45;100.00;101973.91;5289685;28;20106;-75
2022/08/31 03:49:13;;;;;;;5.00;3.70;;;;;;;16.40;100.00;101968.16;5271918;28;20032;-74
2022/08/31 03:51:44;;;;;;;5.95;3.35;;;;;;;16.37;100.00;101965.00;5268204;28;20543;-75
2022/08/31 03:54:14;;;;;;;5.45;3.45;;;;;;;16.33;100.00;101967.22;5268268;28;20016;-75
2022/08/31 03:56:45;;;;;;;9.02;3.97;;;;;;;16.31;100.00;101970.09;5289379;28;20049;-75
2022/08/31 03:59:16;;;;;;;5.30;3.63;;;;;;;16.30;100.00;101979.22;5269096;28;20389;-74
2022/08/31 04:01:46;;;;;;;8.70;3.95;;;;;;;16.27;100.00;101973.34;5282223;28;20402;-75
2022/08/31 04:04:17;;;;;;;5.78;3.92;;;;;;;16.23;100.00;101974.69;5268386;28;20366;-75
2022/08/31 04:06:48;;;;;;;7.93;3.63;;;;;;;16.19;100.00;101974.19;5269948;28;20028;-75
2022/08/31 04:09:19;;;;;;;9.60;3.83;;;;;;;16.17;100.00;101973.53;5289223;28;20023;-74
2022/08/31 04:11:49;;;;;;;9.07;3.85;;;;;;;16.16;100.00;101979.13;5272836;28;20036;-75
2022/08/31 04:14:20;;;;;;;8.27;3.67;;;;;;;16.15;100.00;101980.13;5276519;28;20024;-75
2022/08/31 04:16:50;;;;;;;7.55;4.05;;;;;;;16.15;100.00;101982.84;5288522;28;20031;-76
2022/08/31 04:19:21;;;;;;;9.40;3.70;;;;;;;16.13;100.00;101972.19;5277389;28;20044;-75
2022/08/31 04:21:51;;;;;;;7.28;4.05;;;;;;;16.11;100.00;101978.78;5281362;28;20024;-76
2022/08/31 04:24:22;;;;;;;11.63;3.53;;;;;;;16.10;100.00;101977.13;5279702;28;20033;-76
2022/08/31 04:26:52;;;;;;;8.00;3.20;;;;;;;16.07;100.00;101981.03;5274567;28;20023;-75
2022/08/31 04:29:23;;;;;;;6.38;3.90;;;;;;;16.05;100.00;101978.47;5286934;28;20164;-76
2022/08/31 04:31:54;;;;;;;8.88;3.80;;;;;;;16.04;100.00;101982.22;5276235;28;20030;-75
2022/08/31 04:34:25;;;;;;;6.70;3.75;;;;;;;16.01;100.00;101984.41;5284880;28;20023;-76
2022/08/31 04:36:55;;;;;;;10.80;3.47;;;;;;;15.98;100.00;101980.22;5267570;28;20024;-76
2022/08/31 04:39:26;;;;;;;7.25;3.95;;;;;;;15.94;100.00;101984.28;5280887;28;20375;-75
2022/08/31 04:41:56;;;;;;;12.95;4.32;;;;;;;15.90;100.00;101976.69;5278440;28;20473;-74
2022/08/31 04:44:27;;;;;;;15.77;4.63;;;;;;;15.87;100.00;101980.59;5268550;28;20473;-75
2022/08/31 04:46:58;;;;;;;9.68;4.00;;;;;;;15.85;100.00;101982.59;5267658;28;20024;-75
2022/08/31 04:49:28;;;;;;;7.03;4.07;;;;;;;15.82;100.00;101985.69;5287577;28;20068;-75
2022/08/31 04:51:59;;;;;;;11.93;3.88;;;;;;;15.82;100.00;101982.13;5273732;28;20020;-75
2022/08/31 04:54:29;;;;;;;7.90;3.80;;;;;;;15.83;100.00;101991.94;5286847;28;20443;-75
2022/08/31 04:57:00;;;;;;;5.97;3.78;;;;;;;15.79;100.00;101984.16;5286359;28;20020;-75
2022/08/31 04:59:30;;;;;;;10.60;4.28;;;;;;;15.80;100.00;101988.53;5276231;28;20481;-75
2022/08/31 05:02:02;;;;;;;6.72;3.88;;;;;;;15.80;100.00;101990.41;5284954;28;20561;-75
2022/08/31 05:04:33;;;;;;;6.15;4.35;;;;;;;15.80;100.00;101995.81;5265919;28;20066;-75
2022/08/31 05:07:03;;;;;;;6.43;4.00;;;;;;;15.83;100.00;101994.63;5280351;28;20050;-75
2022/08/31 05:09:34;;;;;;;11.93;4.43;;;;;;;15.84;100.00;101991.75;5266567;28;20028;-74
2022/08/31 05:12:05;;;;;;;8.18;3.80;;;;;;;15.87;100.00;102002.25;5266799;28;20534;-75
2022/08/31 05:14:35;;;;;;;6.40;3.78;;;;;;;15.90;100.00;102004.56;5279099;28;20079;-75
2022/08/31 05:17:06;;;;;;;8.15;4.35;;;;;;;15.93;100.00;102006.94;5266251;28;20032;-75
2022/08/31 05:19:38;;;;;;;4.75;3.58;;;;;;;15.94;100.00;102016.75;5266232;28;20432;-76
2022/08/31 05:22:09;;;;;;;13.13;4.00;;;;;;;15.97;100.00;102015.56;5266566;28;20111;-76
2022/08/31 05:24:39;;;;;;;7.85;3.50;;;;;;;16.01;100.00;102016.91;5265542;28;20565;-76
2022/08/31 05:27:10;;;;;;;6.78;3.97;;;;;;;16.05;100.00;102023.66;5258744;28;20027;-75
2022/08/31 05:29:40;;;;;;;7.03;4.03;;;;;;;16.06;100.00;102030.75;5287778;28;20023;-73
2022/08/31 05:32:11;;;;;;;5.72;3.50;;;;;;;16.05;100.00;102020.94;5290754;28;20030;-73
2022/08/31 05:34:42;;;;;;;7.18;3.70;;;;;;;16.07;100.00;102020.78;5286050;28;20047;-73
2022/08/31 05:37:12;;;;;;;9.65;3.88;;;;;;;16.12;100.00;102021.13;5296301;28;20024;-73
2022/08/31 05:39:43;;;;;;;6.03;3.50;;;;;;;16.12;100.00;102021.97;5271245;28;20487;-73
2022/08/31 05:42:14;;;;;;;8.82;4.05;;;;;;;16.13;100.00;102012.81;5261595;28;20121;-73
2022/08/31 05:44:44;;;;;;;7.70;3.75;;;;;;;16.17;100.00;102021.44;5265555;28;20032;-73
2022/08/31 05:47:15;;;;;;;8.63;3.90;;;;;;;16.17;100.00;102011.44;5279634;28;20027;-73
2022/08/31 05:49:46;;;;;;;6.88;4.03;;;;;;;16.18;100.00;102017.69;5266021;28;20106;-73
2022/08/31 05:52:16;;;;;;;16.75;4.35;;;;;;;16.18;100.00;102012.28;5281938;28;20023;-73
2022/08/31 05:54:47;;;;;;;14.13;4.57;;;;;;;16.17;100.00;102007.91;5286166;28;20019;-73
2022/08/31 05:57:17;;;;;;;8.35;3.65;;;;;;;16.17;100.00;102016.88;5270244;28;20062;-73
2022/08/31 05:59:49;;;;;;;6.60;3.97;;;;;;;16.18;100.00;102012.28;5266191;28;20052;-73
2022/08/31 06:02:19;;;;;;;7.45;3.75;;;;;;;16.29;100.00;102010.03;5279700;28;20103;-73
2022/08/31 06:04:50;;;;;;;7.07;4.07;;;;;;;16.45;100.00;102008.28;5278321;28;20098;-73
2022/08/31 06:07:21;;;;;;;8.55;4.05;;;;;;;16.57;100.00;102013.13;5266182;28;20020;-73
2022/08/31 06:09:51;;;;;;;11.85;3.80;;;;;;;16.75;100.00;102004.75;5265494;28;20026;-73
2022/08/31 06:12:24;;;;;;;9.85;4.15;;;;;;;17.27;100.00;102008.59;5287150;28;20020;-73
2022/08/31 06:14:55;;;;;;;13.82;3.95;;;;;;;17.79;100.00;102011.38;5270957;28;20084;-73
2022/08/31 06:17:25;;;;;;;6.47;3.20;;;;;;;18.34;100.00;102011.94;5274568;28;20019;-73
2022/08/31 06:19:56;;;;;;;8.60;3.83;;;;;;;18.83;100.00;102012.16;5277404;28;20027;-73
2022/08/31 06:22:28;;;;;;;6.18;2.85;;;;;;;19.32;100.00;102015.97;5271592;28;20107;-74
2022/08/31 06:24:58;;;;;;;9.18;3.08;;;;;;;19.63;100.00;102012.91;5269440;28;20061;-73
2022/08/31 06:27:29;;;;;;;11.70;3.47;;;;;;;19.78;100.00;102015.50;5283663;28;20436;-73
2022/08/31 06:30:00;;;;;;;5.82;2.88;;;;;;;20.04;100.00;102015.72;5283015;28;20585;-73
2022/08/31 06:32:31;;;;;;;8.15;3.03;;;;;;;20.22;100.00;102017.88;5266049;28;20073;-73
2022/08/31 06:35:02;;;;;;;6.60;3.67;;;;;;;20.50;100.00;102028.75;5283972;28;20035;-73
2022/08/31 06:37:33;;;;;;;12.57;3.30;;;;;;;20.73;100.00;102035.75;5284024;28;20038;-71
2022/08/31 06:40:04;;;;;;;4.50;2.72;;;;;;;20.91;100.00;102034.13;5288057;28;20027;-71
2022/08/31 06:42:34;;;;;;;7.57;3.20;;;;;;;21.08;100.00;102040.03;5288175;28;20111;-71
2022/08/31 06:45:06;;;;;;;9.52;3.67;;;;;;;21.17;100.00;102030.59;5287835;28;20038;-71
2022/08/31 06:47:37;;;;;;;5.57;2.97;;;;;;;21.13;100.00;102039.41;5289725;28;20042;-72
2022/08/31 06:50:08;;;;;;;6.13;2.88;;;;;;;21.07;100.00;102038.34;5287931;28;20036;-72
2022/08/31 06:52:39;;;;;;;10.45;3.30;;;;;;;21.13;100.00;102042.13;5287226;28;20018;-72
2022/08/31 06:55:09;;;;;;;3.90;2.80;;;;;;;21.14;100.00;102044.69;5286063;28;20473;-72
2022/08/31 06:57:40;;;;;;;3.45;2.47;;;;;;;21.27;100.00;102048.47;5272911;28;20020;-72
2022/08/31 07:00:10;;;;;;;7.28;3.10;;;;;;;21.24;100.00;102055.19;5286954;28;20719;-72
2022/08/31 07:02:41;;;;;;;7.63;2.60;;;;;;;21.28;100.00;102061.06;5287167;28;20020;-73
2022/08/31 07:05:11;;;;;;;5.63;3.05;;;;;;;21.52;100.00;102065.09;5286269;28;20019;-73
2022/08/31 07:07:42;;;;;;;6.47;3.05;;;;;;;21.79;100.00;102072.25;5285997;28;20450;-73
2022/08/31 07:10:12;;;;;;;7.95;2.85;;;;;;;22.00;100.00;102075.81;5286716;28;20020;-72
2022/08/31 07:12:43;;;;;;;5.93;3.10;;;;;;;22.28;100.00;102078.28;5286961;28;20024;-72
2022/08/31 07:15:13;;;;;;;7.90;3.03;;;;;;;22.42;100.00;102085.41;5267920;28;20409;-73
2022/08/31 07:17:44;;;;;;;9.32;3.15;;;;;;;22.07;100.00;102082.94;5286465;28;20027;-72
2022/08/31 07:20:14;;;;;;;4.03;2.67;;;;;;;21.70;100.00;102082.56;5285873;28;20039;-72
2022/08/31 07:22:45;;;;;;;5.18;3.17;;;;;;;21.50;100.00;102080.88;5286414;28;20027;-73
2022/08/31 07:25:16;;;;;;;8.00;3.00;;;;;;;21.39;100.00;102074.16;5285786;28;20033;-72
2022/08/31 07:27:54;;;;;;;13.63;2.60;;;;;;;21.26;100.00;102077.66;5283540;28;20535;-71
2022/08/31 07:30:24;;;;;;;9.30;3.28;;;;;;;21.41;100.00;102078.31;5283274;28;20400;-72
2022/08/31 07:32:55;;;;;;;5.80;3.20;;;;;;;21.67;100.00;102085.69;5283922;28;20018;-73
2022/08/31 07:35:25;;;;;;;7.05;2.97;;;;;;;21.77;100.00;102082.53;5283363;28;20638;-73
2022/08/31 07:43:35;;;;;;;5.38;3.35;;;;;;;20.60;100.00;102096.53;5283176;28;20027;-72
2022/08/31 07:46:06;;;;;;;4.53;3.30;;;;;;;20.30;100.00;102096.75;5283213;28;20016;-72
2022/08/31 07:48:36;;;;;;;4.22;2.97;;;;;;;20.42;100.00;102086.97;5282650;28;20510;-72
2022/08/31 07:51:08;;;;;;;11.48;3.40;;;;;;;20.56;100.00;102087.06;5265731;28;20106;-72
2022/08/31 07:53:41;;;;;;;13.65;3.20;;;;;;;20.63;100.00;102091.53;5264008;28;20084;-71
2022/08/31 07:56:12;;;;;;;5.50;3.17;;;;;;;20.56;100.00;102098.81;5283045;28;20473;-73
2022/08/31 07:58:44;;;;;;;7.32;2.97;;;;;;;20.80;100.00;102099.34;5283037;28;20088;-73
2022/08/31 08:01:16;;;;;;;4.55;3.10;;;;;;;21.44;100.00;102099.75;5265584;28;20024;-73
2022/08/31 08:03:46;;;;;;;8.55;3.60;;;;;;;22.32;100.00;102105.00;5282315;28;20145;-73
2022/08/31 08:06:17;;;;;;;4.20;3.08;;;;;;;23.12;100.00;102107.44;5283016;28;20469;-73
2022/08/31 08:08:48;;;;;;;6.40;3.03;;;;;;;23.78;100.00;102104.28;5284013;28;20020;-73
2022/08/31 08:11:20;;;;;;;7.93;3.00;;;;;;;24.25;100.00;102102.78;5283273;28;20019;-73
2022/08/31 08:13:53;;;;;;;5.38;3.13;;;;;;;24.34;98.42;102107.94;5283349;28;20030;-73
2022/08/31 08:16:24;;;;;;;8.15;3.38;;;;;;;23.82;99.64;102104.66;5281650;28;20469;-73
2022/08/31 08:18:54;;;;;;;7.93;2.80;;;;;;;23.22;100.00;102114.13;5282892;28;20027;-73
2022/08/31 08:21:26;;;;;;;4.43;3.00;;;;;;;22.83;100.00;102119.75;5281918;28;20062;-73
2022/08/31 08:23:56;;;;;;;15.20;3.28;;;;;;;22.89;100.00;102103.38;5282784;28;20416;-73
2022/08/31 08:26:27;;;;;;;11.00;3.17;;;;;;;23.17;100.00;102111.22;5282625;28;20050;-74
2022/08/31 08:28:57;;;;;;;6.35;3.33;;;;;;;23.67;100.00;102102.25;5280933;28;20493;-73
2022/08/31 08:31:28;;;;;;;12.88;3.72;;;;;;;24.19;100.00;102098.19;5281793;28;20115;-74
2022/08/31 08:33:59;;;;;;;12.63;3.67;;;;;;;24.86;97.79;102102.94;5282834;28;20077;-74
2022/08/31 08:36:34;;;;;;;13.82;3.08;;;;;;;25.15;91.40;102095.81;5279471;28;20469;-74
2022/08/31 08:39:08;;;;;;;8.05;3.03;;;;;;;25.40;89.40;102103.88;5280357;28;20028;-73
2022/08/31 08:41:40;;;;;;;9.70;3.70;;;;;;;25.41;89.67;102092.69;5282054;28;20088;-74
2022/08/31 08:44:14;;;;;;;6.63;2.63;;;;;;;25.58;87.38;102101.91;5281732;28;20309;-74
2022/08/31 08:46:48;;;;;;;6.10;3.43;;;;;;;25.49;85.33;102096.97;5283424;28;20110;-73
2022/08/31 08:49:23;;;;;;;5.47;3.00;;;;;;;25.50;86.22;102098.66;5282502;28;20015;-73
2022/08/31 08:52:02;;;;;;;5.50;3.20;;;;;;;25.23;85.07;102103.72;5282379;28;20020;-74
2022/08/31 08:57:30;;;;;;;9.95;3.40;;;;;;;25.22;85.60;102094.66;5282575;28;20088;-74
2022/08/31 09:00:09;;;;;;;6.97;3.30;;;;;;;25.38;85.68;102095.06;5281851;28;20034;-74
2022/08/31 09:03:00;;;;;;;8.90;3.28;;;;;;;25.52;86.90;102091.88;5283053;28;20573;-73
2022/08/31 09:05:49;;;;;;;8.07;2.78;;;;;;;26.02;85.57;102090.63;5265848;28;20034;-73
2022/08/31 09:08:41;;;;;;;10.05;3.30;;;;;;;26.05;82.69;102092.88;5281275;28;20049;-73
2022/08/31 09:11:38;;;;;;;4.82;2.72;;;;;;;26.15;81.58;102104.13;5282963;28;20028;-73
2022/08/31 09:14:28;;;;;;;12.65;3.10;;;;;;;26.08;81.00;102100.66;5280174;28;20088;-73
2022/08/31 09:16:59;;;;;;;5.85;3.38;;;;;;;25.91;81.18;102111.56;5281740;28;20035;-74
2022/08/31 09:19:57;;;;;;;10.18;3.20;;;;;;;25.93;80.95;102098.41;5282356;28;20404;-73
2022/08/31 09:22:22;;;;;;;10.27;3.75;;;;;;;26.23;80.89;102102.94;5281678;28;20489;-74
2022/08/31 09:24:58;;;;;;;10.52;3.40;;;;;;;26.19;79.57;102096.22;5282009;28;20026;-74
2022/08/31 09:27:55;;;;;;;10.48;3.70;;;;;;;25.77;80.03;102093.59;5282477;28;20404;-74
2022/08/31 09:30:50;;;;;;;5.97;3.25;;;;;;;25.36;80.17;102092.56;5281924;28;20135;-74
2022/08/31 09:33:25;;;;;;;7.90;3.30;;;;;;;25.79;80.35;102089.53;5281080;28;20017;-74
2022/08/31 09:36:16;;;;;;;8.30;3.35;;;;;;;25.88;79.84;102097.44;5280864;28;20054;-73
2022/08/31 09:38:46;;;;;;;8.25;3.38;;;;;;;25.62;80.76;102095.94;5280499;28;20380;-73
2022/08/31 09:41:19;;;;;;;8.57;3.05;;;;;;;25.39;82.33;102096.72;5282229;28;20023;-74
2022/08/31 09:43:50;;;;;;;12.38;3.53;;;;;;;25.12;83.24;102090.78;5280867;28;20058;-73
2022/08/31 09:46:27;;;;;;;7.68;3.45;;;;;;;24.73;84.45;102099.28;5281643;28;20106;-73
2022/08/31 09:49:01;;;;;;;9.35;3.88;;;;;;;24.32;84.32;102099.97;5281541;28;20062;-73
2022/08/31 09:51:36;;;;;;;9.90;3.67;;;;;;;24.09;88.49;102097.03;5281763;28;20140;-74
2022/08/31 09:57:09;;;;;;;7.03;3.53;;;;;;;23.44;92.29;102080.91;5281374;28;20023;-74
2022/08/31 09:59:43;;;;;;;6.13;3.78;;;;;;;23.35;94.21;102077.63;5281825;28;20335;-73
2022/08/31 10:02:36;;;;;;;9.02;4.22;;;;;;;22.99;93.08;102079.09;5281926;28;20465;-74
2022/08/31 10:05:30;;;;;;;7.03;3.25;;;;;;;22.88;96.76;102079.78;5263129;28;20547;-74
2022/08/31 10:08:10;;;;;;;7.05;3.47;;;;;;;22.77;97.71;102087.81;5282403;28;20485;-74
2022/08/31 10:10:43;;;;;;;3.75;3.33;;;;;;;22.58;99.37;102079.47;5281500;28;20023;-73
2022/08/31 10:13:14;;;;;;;7.38;3.47;;;;;;;22.54;100.00;102080.97;5280434;28;20031;-74
2022/08/31 10:15:52;;;;;;;6.15;3.30;;;;;;;22.67;100.00;102074.59;5281613;28;20039;-73
2022/08/31 10:18:38;;;;;;;8.73;4.95;;;;;;;22.77;100.00;102072.22;5262779;28;20037;-74
2022/08/31 10:21:14;;;;;;;11.02;3.95;;;;;;;22.99;100.00;102075.50;5280811;28;20024;-73
2022/08/31 10:26:45;;;;;;;5.70;3.78;;;;;;;23.36;99.83;102072.97;5280700;28;20055;-74
2022/08/31 10:29:38;;;;;;;7.32;3.90;;;;;;;23.53;98.57;102065.88;5281165;28;20028;-73
2022/08/31 10:32:22;;;;;;;7.88;4.07;;;;;;;23.53;97.21;102065.88;5280968;28;20024;-74
2022/08/31 10:35:04;;;;;;;5.72;3.67;;;;;;;23.79;97.43;102064.84;5280102;28;20246;-74
2022/08/31 10:38:07;;;;;;;8.23;4.07;;;;;;;24.47;94.33;102066.72;5279872;28;20401;-74
2022/08/31 10:40:58;;;;;;;9.07;3.55;;;;;;;24.80;91.00;102061.66;5281407;28;20045;-74
2022/08/31 10:43:52;;;;;;;9.02;3.42;;;;;;;24.88;89.35;102073.34;5279909;28;20027;-73
2022/08/31 10:46:24;;;;;;;6.88;3.28;;;;;;;25.01;89.02;102068.53;5279696;28;20008;-74
2022/08/31 10:48:56;;;;;;;9.43;3.88;;;;;;;25.27;88.61;102064.56;5280718;28;20388;-74
2022/08/31 10:51:41;;;;;;;7.68;3.20;;;;;;;25.42;88.32;102063.31;5280655;28;20031;-73
2022/08/31 10:54:40;;;;;;;12.43;3.83;;;;;;;25.87;86.49;102062.78;5280381;28;20043;-74
2022/08/31 10:57:28;;;;;;;14.15;4.20;;;;;;;26.15;84.52;102060.13;5280334;28;20031;-74
2022/08/31 11:00:48;;;;;;;15.55;3.58;;;;;;;26.42;81.85;102056.84;5281285;28;20267;-74
2022/08/31 11:03:21;;;;;;;5.53;3.15;;;;;;;26.52;80.95;102062.59;5280705;28;20016;-74
2022/08/31 11:06:13;;;;;;;9.38;3.47;;;;;;;26.38;79.03;102059.25;5280557;28;20035;-75
2022/08/31 11:09:06;;;;;;;4.28;3.50;;;;;;;25.65;80.63;102055.06;5280090;28;20435;-74
2022/08/31 11:11:44;;;;;;;5.43;3.33;;;;;;;25.67;83.21;102043.88;5280558;28;20082;-74
2022/08/31 11:14:52;;;;;;;7.07;3.67;;;;;;;25.64;84.23;102044.31;5280260;28;20024;-74
2022/08/31 11:17:38;;;;;;;9.40;3.30;;;;;;;25.99;83.81;102038.84;5280335;28;20027;-74
2022/08/31 11:20:19;;;;;;;5.10;3.78;;;;;;;25.80;81.50;102041.75;5280359;28;20125;-73
2022/08/31 11:23:04;;;;;;;11.70;3.90;;;;;;;25.49;83.25;102040.13;5280874;28;20047;-73
2022/08/31 11:26:09;;;;;;;10.48;4.05;;;;;;;25.62;84.30;102035.50;5284646;28;20110;-74
2022/08/31 11:28:59;;;;;;;6.65;3.75;;;;;;;25.58;82.53;102035.97;5284533;28;20401;-74
2022/08/31 11:31:33;;;;;;;7.00;4.00;;;;;;;25.68;83.99;102029.03;5284615;28;20023;-74
2022/08/31 11:34:12;;;;;;;9.88;3.67;;;;;;;25.63;83.15;102027.00;5284382;28;20089;-75
2022/08/31 11:36:59;;;;;;;8.20;3.55;;;;;;;25.45;83.16;102024.34;5284931;28;20063;-74
2022/08/31 11:39:34;;;;;;;17.88;4.78;;;;;;;25.48;83.79;102019.22;5283960;28;20027;-74
2022/08/31 11:42:42;;;;;;;9.63;3.60;;;;;;;25.56;84.01;102012.56;5284171;28;20027;-75
2022/08/31 11:45:30;;;;;;;9.80;4.40;;;;;;;25.53;84.33;101993.78;5283639;28;20063;-74
2022/08/31 11:48:00;;;;;;;9.43;4.00;;;;;;;25.86;85.21;102006.97;5282942;28;20100;-74
2022/08/31 11:50:51;;;;;;;12.75;3.70;;;;;;;26.08;82.36;102008.00;5283935;28;20031;-75
2022/08/31 11:53:42;;;;;;;14.70;4.75;;;;;;;26.10;83.38;102002.25;5283858;28;20417;-74
2022/08/31 11:56:28;;;;;;;6.03;3.88;;;;;;;26.32;82.61;102003.28;5283967;28;20023;-75
2022/08/31 11:59:18;;;;;;;9.00;3.80;;;;;;;26.42;80.22;102010.09;5283781;28;20152;-74
2022/08/31 12:01:48;;;;;;;9.70;4.35;;;;;;;26.21;79.77;101995.09;5283362;28;20027;-74
2022/08/31 12:04:29;;;;;;;10.43;4.15;;;;;;;26.11;81.33;101994.88;5283771;28;20024;-74
2022/08/31 12:07:03;;;;;;;11.27;5.43;;;;;;;25.91;81.12;102001.59;5283638;28;20031;-76
2022/08/31 12:10:09;;;;;;;7.72;4.13;;;;;;;26.16;82.28;101997.72;5284167;28;20054;-74